createdAt,value
2018-11-13T00:01:57.120Z,2.00
2018-11-13T00:04:24.495Z,1.87
2018-11-13T00:06:52.066Z,1.80
2018-11-13T00:09:19.501Z,1.93
2018-11-13T00:11:46.851Z,1.70
2018-11-13T00:14:14.161Z,3.17
2018-11-13T00:16:41.385Z,4.20
2018-11-13T00:19:09.655Z,1.80
2018-11-13T00:21:37.698Z,2.10
2018-11-13T00:24:05.075Z,1.90
2018-11-13T00:26:32.413Z,2.47
2018-11-13T00:28:59.662Z,2.20
2018-11-13T00:31:26.839Z,2.33
2018-11-13T00:33:53.987Z,2.20
2018-11-13T00:36:21.548Z,2.60
2018-11-13T00:38:48.957Z,2.40
2018-11-13T00:41:16.212Z,2.97
2018-11-13T00:43:43.433Z,2.57
2018-11-13T00:46:10.801Z,2.50
2018-11-13T00:48:38.018Z,2.70
2018-11-13T00:51:05.247Z,4.23
2018-11-13T00:53:32.574Z,2.40
2018-11-13T00:55:59.783Z,2.60
2018-11-13T00:58:27.025Z,2.87
2018-11-13T01:00:54.754Z,3.50
2018-11-13T01:03:21.530Z,2.93
2018-11-13T01:05:48.703Z,3.33
2018-11-13T01:08:16.161Z,3.40
2018-11-13T01:10:43.567Z,3.30
2018-11-13T01:13:11.006Z,2.90
2018-11-13T01:15:38.265Z,2.80
2018-11-13T01:18:05.732Z,2.90
2018-11-13T01:20:32.891Z,3.10
2018-11-13T01:23:00.178Z,3.50
2018-11-13T01:25:27.490Z,2.97
2018-11-13T01:27:54.729Z,3.23
2018-11-13T01:30:22.129Z,3.37
2018-11-13T01:32:49.439Z,5.27
2018-11-13T01:35:17.798Z,2.60
2018-11-13T01:37:45.211Z,2.93
2018-11-13T01:40:13.840Z,3.47
2018-11-13T01:42:42.390Z,3.70
2018-11-13T01:45:10.915Z,3.63
2018-11-13T01:47:38.216Z,2.83
2018-11-13T01:50:05.525Z,3.00
2018-11-13T01:52:33.303Z,2.83
2018-11-13T01:55:00.405Z,3.77
2018-11-13T01:57:27.852Z,3.33
2018-11-13T01:59:55.089Z,2.80
2018-11-13T02:02:22.349Z,5.57
2018-11-13T02:04:49.770Z,3.30
2018-11-13T02:07:17.129Z,2.30
2018-11-13T02:09:44.457Z,2.80
2018-11-13T02:12:11.654Z,2.87
2018-11-13T02:14:38.918Z,2.40
2018-11-13T02:17:06.447Z,2.50
2018-11-13T02:19:33.820Z,2.70
2018-11-13T02:22:01.188Z,2.57
2018-11-13T02:24:28.607Z,2.53
2018-11-13T02:26:55.988Z,2.30
2018-11-13T02:29:23.197Z,2.80
2018-11-13T02:31:50.579Z,2.00
2018-11-13T02:34:17.746Z,2.40
2018-11-13T02:36:45.084Z,1.90
2018-11-13T02:39:12.353Z,2.23
2018-11-13T02:41:40.058Z,2.47
2018-11-13T02:44:07.790Z,3.37
2018-11-13T02:46:35.015Z,2.70
2018-11-13T02:49:02.185Z,2.60
2018-11-13T02:51:29.555Z,2.33
2018-11-13T02:53:56.969Z,1.90
2018-11-13T02:56:24.211Z,2.10
2018-11-13T02:58:51.633Z,1.57
2018-11-13T03:01:19.038Z,1.60
2018-11-13T03:03:46.274Z,1.70
2018-11-13T03:06:13.751Z,1.50
2018-11-13T03:08:41.126Z,1.87
2018-11-13T03:11:08.446Z,1.73
2018-11-13T03:13:35.755Z,1.53
2018-11-13T03:16:03.232Z,1.60
2018-11-13T03:18:30.476Z,1.57
2018-11-13T03:20:58.760Z,1.60
2018-11-13T03:23:26.028Z,2.97
2018-11-13T03:25:53.216Z,1.67
2018-11-13T03:28:20.533Z,1.73
2018-11-13T03:30:47.802Z,2.50
2018-11-13T03:33:15.071Z,1.50
2018-11-13T03:35:42.533Z,1.93
2018-11-13T03:38:10.254Z,2.33
2018-11-13T03:40:37.475Z,2.07
2018-11-13T03:43:04.886Z,2.70
2018-11-13T03:45:32.270Z,3.27
2018-11-13T03:47:59.598Z,2.43
2018-11-13T03:50:26.863Z,2.30
2018-11-13T03:52:54.166Z,2.10
2018-11-13T03:55:21.514Z,2.00
2018-11-13T03:57:49.578Z,2.80
2018-11-13T04:00:18.190Z,1.80
2018-11-13T04:02:45.613Z,1.97
2018-11-13T04:05:14.086Z,2.27
2018-11-13T04:07:42.785Z,1.90
2018-11-13T04:10:11.467Z,1.70
2018-11-13T04:12:39.258Z,3.10
2018-11-13T04:15:07.642Z,1.90
2018-11-13T04:17:35.569Z,1.80
2018-11-13T04:20:02.861Z,2.00
2018-11-13T04:22:31.105Z,2.40
2018-11-13T04:24:58.744Z,2.40
2018-11-13T04:27:26.501Z,1.80
2018-11-13T04:29:53.757Z,2.87
2018-11-13T04:32:21.048Z,2.50
2018-11-13T04:34:48.442Z,1.60
2018-11-13T04:37:15.722Z,2.07
2018-11-13T04:39:43.079Z,1.87
2018-11-13T04:42:10.471Z,3.33
2018-11-13T04:44:37.735Z,1.90
2018-11-13T04:47:05.367Z,1.80
2018-11-13T04:49:32.958Z,1.90
2018-11-13T04:52:00.168Z,2.70
2018-11-13T04:54:27.508Z,1.80
2018-11-13T04:56:54.970Z,3.87
2018-11-13T04:59:22.253Z,1.70
2018-11-13T05:01:49.998Z,1.30
2018-11-13T05:04:17.246Z,1.83
2018-11-13T05:06:44.562Z,1.77
2018-11-13T05:09:11.857Z,1.57
2018-11-13T05:11:39.056Z,3.97
2018-11-13T05:14:06.498Z,1.70
2018-11-13T05:16:33.745Z,1.30
2018-11-13T05:19:00.911Z,1.00
2018-11-13T05:21:28.130Z,1.00
2018-11-13T05:23:55.373Z,1.00
2018-11-13T05:26:22.821Z,1.10
2018-11-13T05:28:50.289Z,0.97
2018-11-13T05:31:17.850Z,1.20
2018-11-13T05:33:45.138Z,1.10
2018-11-13T05:36:12.391Z,1.10
2018-11-13T05:38:39.609Z,0.93
2018-11-13T05:41:06.737Z,1.17
2018-11-13T05:43:33.933Z,1.00
2018-11-13T05:46:01.291Z,2.80
2018-11-13T05:48:28.514Z,1.00
2018-11-13T05:50:55.708Z,1.10
2018-11-13T05:53:22.969Z,1.57
2018-11-13T05:55:50.259Z,1.00
2018-11-13T05:58:17.581Z,1.40
2018-11-13T06:00:44.882Z,1.50
2018-11-13T06:03:12.256Z,1.20
2018-11-13T06:05:40.454Z,0.90
2018-11-13T06:08:07.864Z,1.07
2018-11-13T06:10:35.225Z,1.30
2018-11-13T06:13:02.418Z,0.87
2018-11-13T06:15:29.611Z,2.17
2018-11-13T06:17:57.161Z,0.90
2018-11-13T06:20:24.408Z,1.40
2018-11-13T06:22:51.622Z,1.13
2018-11-13T06:25:18.782Z,1.10
2018-11-13T06:27:47.114Z,2.00
2018-11-13T06:30:17.901Z,1.30
2018-11-13T06:32:45.817Z,1.70
2018-11-13T06:35:13.096Z,1.80
2018-11-13T06:37:40.418Z,1.53
2018-11-13T06:40:08.736Z,1.57
2018-11-13T06:42:36.192Z,1.50
2018-11-13T06:45:03.599Z,1.32
2018-11-13T06:47:30.966Z,1.30
2018-11-13T06:49:58.314Z,1.53
2018-11-13T06:52:26.149Z,1.63
2018-11-13T06:55:06.524Z,2.90
2018-11-13T06:57:34.067Z,1.53
2018-11-13T07:00:01.777Z,1.43
2018-11-13T07:02:28.986Z,1.60
2018-11-13T07:04:56.890Z,1.57
2018-11-13T07:07:24.202Z,1.50
2018-11-13T07:09:52.480Z,2.30
2018-11-13T07:12:19.768Z,1.40
2018-11-13T07:14:47.184Z,1.93
2018-11-13T07:17:14.531Z,7.13
2018-11-13T07:19:42.550Z,1.77
2018-11-13T07:22:09.885Z,2.00
2018-11-13T07:24:37.528Z,1.70
2018-11-13T07:27:05.108Z,1.50
2018-11-13T07:29:32.568Z,2.10
2018-11-13T07:32:00.049Z,1.57
2018-11-13T07:34:27.707Z,1.50
2018-11-13T07:36:55.383Z,1.30
2018-11-13T07:39:23.443Z,1.60
2018-11-13T07:41:50.674Z,5.83
2018-11-13T07:44:18.016Z,1.30
2018-11-13T07:46:45.570Z,1.40
2018-11-13T07:49:12.758Z,1.50
2018-11-13T07:51:40.096Z,1.60
2018-11-13T07:54:07.565Z,1.37
2018-11-13T07:56:35.179Z,1.13
2018-11-13T07:59:02.500Z,1.53
2018-11-13T08:01:30.747Z,1.83
2018-11-13T08:03:58.085Z,1.10
2018-11-13T08:06:25.458Z,2.03
2018-11-13T08:08:53.014Z,1.33
2018-11-13T08:11:20.981Z,8.00
2018-11-13T08:13:48.228Z,1.93
2018-11-13T08:16:15.694Z,3.33
2018-11-13T08:18:43.235Z,1.40
2018-11-13T08:21:11.807Z,1.40
2018-11-13T08:23:39.519Z,1.60
2018-11-13T08:26:07.389Z,1.47
2018-11-13T08:28:35.282Z,1.30
2018-11-13T08:31:03.505Z,1.93
2018-11-13T08:33:33.754Z,1.30
2018-11-13T08:36:01.361Z,1.70
2018-11-13T08:38:28.957Z,2.87
2018-11-13T08:40:56.346Z,0.90
2018-11-13T08:43:24.483Z,1.43
2018-11-13T08:45:51.717Z,2.50
2018-11-13T08:48:19.023Z,1.33
2018-11-13T08:50:46.377Z,0.90
2018-11-13T08:53:13.881Z,2.90
2018-11-13T08:55:41.218Z,0.77
2018-11-13T08:58:08.391Z,1.87
2018-11-13T09:00:39.981Z,0.80
2018-11-13T09:03:07.383Z,0.90
2018-11-13T09:05:34.652Z,1.00
2018-11-13T09:08:01.905Z,1.10
2018-11-13T09:10:29.787Z,1.10
2018-11-13T09:12:57.087Z,1.00
2018-11-13T09:15:24.375Z,0.80
2018-11-13T09:17:52.959Z,3.57
2018-11-13T09:20:20.474Z,0.87
2018-11-13T09:22:47.820Z,0.83
2018-11-13T09:25:20.049Z,1.77
2018-11-13T09:27:47.861Z,0.90
2018-11-13T09:30:17.517Z,0.70
2018-11-13T09:32:45.511Z,1.10
2018-11-13T09:35:13.969Z,3.07
2018-11-13T09:37:41.288Z,1.47
2018-11-13T09:40:12.655Z,0.93
2018-11-13T09:42:41.073Z,0.70
2018-11-13T09:45:09.234Z,1.57
2018-11-13T09:47:36.670Z,0.90
2018-11-13T09:50:05.588Z,0.80
2018-11-13T09:52:33.033Z,1.00
2018-11-13T09:55:00.561Z,0.70
2018-11-13T09:57:27.849Z,0.73
2018-11-13T09:59:55.247Z,1.23
2018-11-13T10:02:23.405Z,1.27
2018-11-13T10:04:50.799Z,1.23
2018-11-13T10:07:17.377Z,1.50
2018-11-13T10:09:44.805Z,1.03
2018-11-13T10:12:12.075Z,0.83
2018-11-13T10:14:40.123Z,1.27
2018-11-13T10:17:08.067Z,1.80
2018-11-13T10:19:35.409Z,4.60
2018-11-13T10:22:02.930Z,0.77
2018-11-13T10:24:30.507Z,0.90
2018-11-13T10:26:57.759Z,1.10
2018-11-13T10:29:25.130Z,1.50
2018-11-13T10:31:52.375Z,0.90
2018-11-13T10:34:19.652Z,0.67
2018-11-13T10:36:47.176Z,1.23
2018-11-13T10:39:14.417Z,0.90
2018-11-13T10:41:41.636Z,0.83
2018-11-13T10:44:09.030Z,1.20
2018-11-13T10:46:39.997Z,1.20
2018-11-13T10:49:07.728Z,2.03
2018-11-13T10:51:35.189Z,1.73
2018-11-13T10:54:02.612Z,1.30
2018-11-13T10:56:30.179Z,2.07
2018-11-13T10:58:58.547Z,1.20
2018-11-13T11:01:32.300Z,1.00
2018-11-13T11:05:05.796Z,1.03
2018-11-13T11:07:33.318Z,1.17
2018-11-13T11:10:01.329Z,2.63
2018-11-13T11:12:29.662Z,0.97
2018-11-13T11:14:57.214Z,1.10
2018-11-13T11:17:24.532Z,5.80
2018-11-13T11:19:52.360Z,2.83
2018-11-13T11:22:20.773Z,1.27
2018-11-13T11:24:48.504Z,1.37
2018-11-13T11:27:16.095Z,7.30
2018-11-13T11:29:43.402Z,1.40
2018-11-13T11:32:10.741Z,3.23
2018-11-13T11:34:38.050Z,1.10
2018-11-13T11:37:05.261Z,2.50
2018-11-13T11:39:32.514Z,5.43
2018-11-13T11:41:59.706Z,2.77
2018-11-13T11:44:27.207Z,2.10
2018-11-13T11:46:54.393Z,2.57
2018-11-13T11:49:21.825Z,1.80
2018-11-13T11:51:49.098Z,2.77
2018-11-13T11:54:16.361Z,4.90
2018-11-13T11:56:43.771Z,3.37
2018-11-13T11:59:11.148Z,1.43
2018-11-13T12:01:38.631Z,1.67
2018-11-13T12:04:05.842Z,8.50
2018-11-13T12:06:33.693Z,2.23
2018-11-13T12:09:01.742Z,3.10
2018-11-13T12:11:29.167Z,3.80
2018-11-13T12:13:56.534Z,1.90
2018-11-13T12:16:23.982Z,3.40
2018-11-13T12:18:51.502Z,2.20
2018-11-13T12:21:18.824Z,1.67
2018-11-13T12:23:46.595Z,2.80
2018-11-13T12:26:15.195Z,2.73
2018-11-13T12:28:42.616Z,1.50
2018-11-13T12:31:09.731Z,1.27
2018-11-13T12:33:37.011Z,1.50
2018-11-13T12:36:04.331Z,1.67
2018-11-13T12:38:31.580Z,2.70
2018-11-13T12:40:59.021Z,2.37
2018-11-13T12:43:26.252Z,3.30
2018-11-13T12:45:53.692Z,2.90
2018-11-13T12:48:21.358Z,3.23
2018-11-13T12:50:54.525Z,7.07
2018-11-13T12:53:22.213Z,2.43
2018-11-13T12:55:50.042Z,2.10
2018-11-13T12:58:17.638Z,2.80
2018-11-13T13:00:44.888Z,1.83
2018-11-13T13:03:12.461Z,1.80
2018-11-13T13:05:40.041Z,5.23
2018-11-13T13:08:07.494Z,1.80
2018-11-13T13:10:34.881Z,1.30
2018-11-13T13:13:02.557Z,3.33
2018-11-13T13:15:29.893Z,3.70
2018-11-13T13:17:57.337Z,1.80
2018-11-13T13:20:26.370Z,1.60
2018-11-13T13:22:53.676Z,3.13
2018-11-13T13:25:22.345Z,4.00
2018-11-13T13:27:49.939Z,3.70
2018-11-13T13:30:20.434Z,3.23
2018-11-13T13:32:48.242Z,7.27
2018-11-13T13:35:37.015Z,4.90
2018-11-13T13:38:05.142Z,10.60
2018-11-13T13:40:32.471Z,4.60
2018-11-13T13:42:59.704Z,3.03
2018-11-13T13:45:27.463Z,4.33
2018-11-13T13:47:55.119Z,3.10
2018-11-13T13:50:22.507Z,4.13
2018-11-13T13:52:50.148Z,3.03
2018-11-13T13:55:18.328Z,3.33
2018-11-13T13:57:45.641Z,5.23
2018-11-13T14:00:13.181Z,7.80
2018-11-13T14:02:41.255Z,6.50
2018-11-13T14:05:08.934Z,3.00
2018-11-13T14:07:36.181Z,3.80
2018-11-13T14:10:03.578Z,2.80
2018-11-13T14:12:30.777Z,8.47
2018-11-13T14:14:58.320Z,5.27
2018-11-13T14:17:26.158Z,7.23
2018-11-13T14:19:53.803Z,6.03
2018-11-13T14:22:21.628Z,6.03
2018-11-13T14:24:49.084Z,3.33
2018-11-13T14:27:16.386Z,6.30
2018-11-13T14:29:43.911Z,5.23
2018-11-13T14:32:11.221Z,4.20
2018-11-13T14:34:38.624Z,3.67
2018-11-13T14:37:05.981Z,4.37
2018-11-13T14:39:33.393Z,6.00
2018-11-13T14:42:01.082Z,2.83
2018-11-13T14:44:28.411Z,2.97
2018-11-13T14:46:55.762Z,4.63
2018-11-13T14:49:23.193Z,1.87
2018-11-13T14:51:50.769Z,5.50
2018-11-13T14:54:19.604Z,3.40
2018-11-13T14:56:47.677Z,2.30
2018-11-13T14:59:14.987Z,4.03
2018-11-13T15:01:42.452Z,3.23
2018-11-13T15:04:09.634Z,2.37
2018-11-13T15:06:36.889Z,2.07
2018-11-13T15:09:06.298Z,2.67
2018-11-13T15:11:33.498Z,4.90
2018-11-13T15:14:00.702Z,6.80
2018-11-13T15:16:28.002Z,6.47
2018-11-13T15:18:55.362Z,5.13
2018-11-13T15:21:22.567Z,5.33
2018-11-13T15:23:49.817Z,4.30
2018-11-13T15:26:17.340Z,6.20
2018-11-13T15:28:44.658Z,3.50
2018-11-13T15:31:12.018Z,5.93
2018-11-13T15:33:39.341Z,4.10
2018-11-13T15:36:06.608Z,2.90
2018-11-13T15:38:34.094Z,5.93
2018-11-13T15:41:01.376Z,2.93
2018-11-13T15:43:28.549Z,5.43
2018-11-13T15:45:55.961Z,6.33
2018-11-13T15:48:23.466Z,3.30
2018-11-13T15:50:50.902Z,4.40
2018-11-13T15:53:20.832Z,5.33
2018-11-13T15:55:48.378Z,5.60
2018-11-13T15:58:15.912Z,3.77
2018-11-13T16:00:43.217Z,6.53
2018-11-13T16:03:20.282Z,5.00
2018-11-13T16:05:50.356Z,6.80
2018-11-13T16:08:17.544Z,3.33
2018-11-13T16:10:45.021Z,8.20
2018-11-13T16:13:12.584Z,5.17
2018-11-13T16:15:40.334Z,3.43
2018-11-13T16:18:10.293Z,2.33
2018-11-13T16:20:38.788Z,7.10
2018-11-13T16:23:06.483Z,7.73
2018-11-13T16:25:33.805Z,4.80
2018-11-13T16:28:01.196Z,3.93
2018-11-13T16:30:30.932Z,4.47
2018-11-13T16:32:58.230Z,6.70
2018-11-13T16:35:26.349Z,5.33
2018-11-13T16:37:54.903Z,4.37
2018-11-13T16:40:24.647Z,7.40
2018-11-13T16:42:52.042Z,4.23
2018-11-13T16:45:20.711Z,8.40
2018-11-13T16:47:48.184Z,13.67
2018-11-13T16:50:19.580Z,4.60
2018-11-13T16:52:46.965Z,4.17
2018-11-13T16:55:20.059Z,4.90
2018-11-13T16:57:47.534Z,7.70
2018-11-13T17:00:14.971Z,7.10
2018-11-13T17:02:42.307Z,6.10
2018-11-13T17:05:11.857Z,5.60
2018-11-13T17:07:39.557Z,7.00
2018-11-13T17:10:09.601Z,2.90
2018-11-13T17:12:36.844Z,4.20
2018-11-13T17:15:04.859Z,6.40
2018-11-13T17:17:33.280Z,4.17
2018-11-13T17:20:00.706Z,3.83
2018-11-13T17:22:27.986Z,3.70
2018-11-13T17:24:56.242Z,7.10
2018-11-13T17:27:23.795Z,4.17
2018-11-13T17:29:51.066Z,8.10
2018-11-13T17:32:18.854Z,3.53
2018-11-13T17:34:46.340Z,7.70
2018-11-13T17:37:14.411Z,5.77
2018-11-13T17:39:41.899Z,3.33
2018-11-13T17:42:09.325Z,3.90
2018-11-13T17:44:36.797Z,3.57
2018-11-13T17:47:04.955Z,7.53
2018-11-13T17:49:32.560Z,5.90
2018-11-13T17:52:00.105Z,6.83
2018-11-13T17:54:27.495Z,9.03
2018-11-13T17:56:55.030Z,4.60
2018-11-13T17:59:22.513Z,4.50
2018-11-13T18:01:49.944Z,24.40
2018-11-13T18:04:17.596Z,13.27
2018-11-13T18:06:44.955Z,9.63
2018-11-13T18:09:17.577Z,11.77
2018-11-13T18:11:45.441Z,16.53
2018-11-13T18:14:13.032Z,17.70
2018-11-13T18:16:40.615Z,4.70
2018-11-13T18:19:08.111Z,12.63
2018-11-13T18:21:35.553Z,12.30
2018-11-13T18:24:02.843Z,17.20
2018-11-13T18:26:30.223Z,11.83
2018-11-13T18:28:57.533Z,10.27
2018-11-13T18:31:25.605Z,12.87
2018-11-13T18:33:52.954Z,8.03
2018-11-13T18:36:20.679Z,11.20
2018-11-13T18:38:48.079Z,4.77
2018-11-13T18:43:54.217Z,5.23
2018-11-13T18:46:23.069Z,8.87
2018-11-13T18:48:55.673Z,10.23
2018-11-13T18:51:23.531Z,8.83
2018-11-13T18:53:51.210Z,9.10
2018-11-13T18:56:18.857Z,12.70
2018-11-13T18:58:46.319Z,8.40
2018-11-13T19:01:13.546Z,5.70
2018-11-13T19:03:40.955Z,5.20
2018-11-13T19:06:09.004Z,9.10
2018-11-13T19:08:36.399Z,5.30
2018-11-13T19:11:04.703Z,8.07
2018-11-13T19:13:34.746Z,7.50
2018-11-13T19:16:05.567Z,7.67
2018-11-13T19:18:32.918Z,8.87
2018-11-13T19:21:00.577Z,7.50
2018-11-13T19:23:27.882Z,11.20
2018-11-13T19:25:55.592Z,6.90
2018-11-13T19:28:23.091Z,6.97
2018-11-13T19:30:52.600Z,12.70
2018-11-13T19:33:20.364Z,6.17
2018-11-13T19:35:49.399Z,7.30
2018-11-13T19:38:16.810Z,5.23
2018-11-13T19:40:45.962Z,9.40
2018-11-13T19:43:14.568Z,7.93
2018-11-13T19:45:42.737Z,6.07
2018-11-13T19:48:10.352Z,8.17
2018-11-13T19:50:38.013Z,7.73
2018-11-13T19:58:02.110Z,11.90
2018-11-13T20:00:30.854Z,4.83
2018-11-13T20:02:59.937Z,6.90
2018-11-13T20:05:28.314Z,6.00
2018-11-13T20:07:55.537Z,5.50
2018-11-13T20:10:24.366Z,5.80
2018-11-13T20:12:52.653Z,9.20
2018-11-13T20:15:20.908Z,3.80
2018-11-13T20:17:48.290Z,8.97
2018-11-13T20:20:24.475Z,9.60
2018-11-13T20:22:52.710Z,5.10
2018-11-13T20:25:24.296Z,5.43
2018-11-13T20:27:51.577Z,8.73
2018-11-13T20:30:20.251Z,12.10
2018-11-13T20:32:47.526Z,5.17
2018-11-13T20:35:14.778Z,9.03
2018-11-13T20:37:43.569Z,6.20
2018-11-13T20:40:26.947Z,3.37
2018-11-13T20:42:55.854Z,5.43
2018-11-13T20:45:23.043Z,7.10
2018-11-13T20:47:50.279Z,6.13
2018-11-13T20:50:18.763Z,4.27
2018-11-13T20:52:46.393Z,12.47
2018-11-13T20:55:13.788Z,3.00
2018-11-13T20:57:41.096Z,4.53
2018-11-13T21:00:12.373Z,5.50
2018-11-13T21:02:39.731Z,3.97
2018-11-13T21:05:07.467Z,4.03
2018-11-13T21:07:35.293Z,5.80
2018-11-13T21:10:02.520Z,5.87
2018-11-13T21:12:30.650Z,4.10
2018-11-13T21:14:58.758Z,2.80
2018-11-13T21:17:26.373Z,5.43
2018-11-13T21:19:53.613Z,5.43
2018-11-13T21:22:20.877Z,7.83
2018-11-13T21:24:48.229Z,6.90
2018-11-13T21:27:15.599Z,6.20
2018-11-13T21:29:42.819Z,3.67
2018-11-13T21:32:10.091Z,6.17
2018-11-13T21:34:44.126Z,6.73
2018-11-13T21:37:11.432Z,6.70
2018-11-13T21:39:38.651Z,4.90
2018-11-13T21:42:05.874Z,8.13
2018-11-13T21:44:33.214Z,8.10
2018-11-13T21:47:00.686Z,4.83
2018-11-13T21:49:27.973Z,4.07
2018-11-13T21:51:55.230Z,4.17
2018-11-13T21:54:22.586Z,7.33
2018-11-13T21:56:49.908Z,11.13
2018-11-13T21:59:17.622Z,9.23
2018-11-13T22:01:45.192Z,11.27
2018-11-13T22:04:12.439Z,6.43
2018-11-13T22:06:39.661Z,8.00
2018-11-13T22:09:08.763Z,13.80
2018-11-13T22:11:36.456Z,14.43
2018-11-13T22:14:04.013Z,13.25
2018-11-13T22:16:31.263Z,7.77
2018-11-13T22:18:58.485Z,6.60
2018-11-13T22:21:25.822Z,4.00
2018-11-13T22:23:53.154Z,4.10
2018-11-13T22:26:20.704Z,3.40
2018-11-13T22:28:48.052Z,4.70
2018-11-13T22:31:15.433Z,2.83
2018-11-13T22:33:42.875Z,5.00
2018-11-13T22:36:10.201Z,3.40
2018-11-13T22:38:37.536Z,7.63
2018-11-13T22:41:05.459Z,3.90
2018-11-13T22:43:32.704Z,3.77
2018-11-13T22:45:59.897Z,10.23
2018-11-13T22:48:27.164Z,5.23
2018-11-13T22:50:54.497Z,3.67
2018-11-13T22:53:23.016Z,7.60
2018-11-13T22:55:50.254Z,7.40
2018-11-13T22:58:17.500Z,3.10
2018-11-13T23:00:46.807Z,5.63
2018-11-13T23:03:14.899Z,8.63
2018-11-13T23:05:43.031Z,5.60
2018-11-13T23:08:17.730Z,9.13
2018-11-13T23:10:50.779Z,5.37
2018-11-13T23:13:17.934Z,3.63
2018-11-13T23:15:45.137Z,7.10
2018-11-13T23:18:12.382Z,4.20
2018-11-13T23:20:39.642Z,3.90
2018-11-13T23:23:07.056Z,5.50
2018-11-13T23:25:34.753Z,5.40
2018-11-13T23:28:02.294Z,3.03
2018-11-13T23:30:29.600Z,3.60
2018-11-13T23:32:58.394Z,4.17
2018-11-13T23:35:25.586Z,4.73
2018-11-13T23:37:54.383Z,3.87
2018-11-13T23:40:22.890Z,4.13
2018-11-13T23:42:50.973Z,6.83
2018-11-13T23:45:19.195Z,3.83
2018-11-13T23:47:46.939Z,6.40
2018-11-13T23:50:14.258Z,5.17
2018-11-13T23:52:41.954Z,4.20
2018-11-13T23:55:10.775Z,2.87
2018-11-13T23:57:38.171Z,3.13
